Latest Weather Observations for Orange Airport

IDN60801

Issued at 3:52 pm EDT Monday 19 November 2018 (issued every 10 minutes, with the page automatically refreshed every 10 minutes)

About weather observations | Map of weather stations | Latest weather observations for NSW | Other Formats
Station Details ID: 063303 Name: ORANGE AIRPORT AWS Lat: -33.38 Lon: 149.13 Height: 944.65 m
Data from the previous 72 hours. | See also: Recent months at Orange Airport
Date/Time
EDT
Temp
°C
App
Temp
°C
Dew
Point
°C
Rel
Hum
%
Delta-T
°C
Wind Press
QNH
hPa
Press
MSL
hPa
Rain since
9am
mm
Dir  Spd
km/h
Gust
km/h
Spd
kts
Gust
kts
19/03:30pm 22.0 20.3 7.4 39 7.9 NNE 6 11 3 6 1018.2 1015.2 0.0
19/03:00pm 20.6 18.5 8.3 45 6.7 SSE 9 15 5 8 1018.7 1015.7 0.0
19/02:30pm 20.2 18.0 7.9 45 6.7 S 9 15 5 8 1019.1 1016.2 0.0
19/02:00pm 20.1 17.9 7.8 45 6.6 SSW 9 15 5 8 1019.4 1016.4 0.0
19/01:30pm 20.4 18.3 8.1 45 6.7 NE 9 13 5 7 1019.7 1016.7 0.0
19/01:00pm 19.7 17.5 7.8 46 6.4 N 9 15 5 8 1020.0 1017.1 0.0
19/12:30pm 21.0 19.1 8.9 46 6.7 SW 9 19 5 10 1020.4 1017.4 0.0
19/12:00pm 19.3 16.0 8.0 48 6.1 NNW 15 24 8 13 1020.8 1017.8 0.0
19/11:30am 19.9 16.4 8.6 48 6.2 N 17 24 9 13 1021.1 1018.2 0.0
19/11:00am 19.4 15.9 8.7 50 5.8 N 17 26 9 14 1021.6 1018.6 0.0
19/10:30am 18.0 14.8 8.6 54 5.1 NNE 15 26 8 14 1021.9 1019.0 0.0
19/10:00am 16.4 13.1 7.9 57 4.5 NNE 15 22 8 12 1022.2 1019.3 0.0
19/09:30am 15.7 11.7 8.4 62 3.9 NE 19 26 10 14 1022.3 1019.4 0.0
19/09:00am 14.3 10.5 7.6 64 3.5 NE 17 26 9 14 1022.7 1019.7 0.0
19/08:30am 12.9 9.5 7.6 70 2.7 NE 15 20 8 11 1022.5 1019.6 0.0
19/08:00am 11.4 7.5 7.3 76 2.1 NE 17 24 9 13 1022.4 1019.5 0.0
19/07:30am 10.5 6.6 7.2 80 1.7 NE 17 22 9 12 1022.2 1019.3 0.0
19/07:00am 9.4 6.2 6.7 83 1.3 NE 13 20 7 11 1022.1 1019.2 0.0
19/06:30am 8.4 5.1 6.2 86 1.1 NE 13 20 7 11 1022.2 1019.3 0.0
19/06:00am 7.8 3.6 5.8 87 1.0 NE 17 20 9 11 1021.8 1018.8 0.0
19/05:30am 7.3 3.7 4.8 84 1.2 NNE 13 19 7 10 1021.6 1018.6 0.0
19/05:00am 7.3 3.7 5.1 86 1.0 NE 13 17 7 9 1021.4 1018.5 0.0
19/04:30am 7.1 3.2 5.3 88 0.8 NE 15 19 8 10 1021.3 1018.4 0.0
19/04:00am 7.5 4.0 5.5 87 0.9 ENE 13 20 7 11 1021.1 1018.2 0.0
19/03:30am 7.5 4.0 5.5 87 0.9 ENE 13 20 7 11 1021.1 1018.2 0.0
19/03:00am 7.6 4.9 5.6 87 0.9 ENE 9 15 5 8 1021.6 1018.6 0.0
19/02:30am 8.2 5.2 6.0 86 1.1 ENE 11 15 6 8 1021.7 1018.7 0.0
19/02:00am 8.6 5.2 6.1 84 1.2 ENE 13 20 7 11 1022.0 1019.1 0.0
19/01:30am 8.7 5.0 6.2 84 1.2 ENE 15 20 8 11 1022.2 1019.3 0.0
19/01:00am 9.1 5.4 6.5 84 1.3 ENE 15 20 8 11 1022.4 1019.5 0.0
19/12:30am 9.3 5.3 6.6 83 1.3 E 17 24 9 13 1022.3 1019.4 0.0
19/12:00am 9.7 5.4 7.0 83 1.3 ENE 19 28 10 15 1022.4 1019.5 0.0
 
Date/Time
EDT
Temp
°C
App
Temp
°C
Dew
Point
°C
Rel
Hum
%
Delta-T
°C
Wind Press
QNH
hPa
Press
MSL
hPa
Rain since
9am
mm
Dir  Spd
km/h
Gust
km/h
Spd
kts
Gust
kts
18/11:30pm 9.7 6.2 7.1 84 1.3 E 15 22 8 12 1022.4 1019.5 0.0
18/11:00pm 9.9 6.4 7.2 83 1.3 E 15 22 8 12 1022.3 1019.4 0.0
18/10:30pm 10.3 6.0 7.2 81 1.6 E 19 26 10 14 1022.3 1019.4 0.0
18/10:00pm 10.8 6.3 7.1 78 1.9 E 20 32 11 17 1022.2 1019.3 0.0
18/09:30pm 11.2 6.7 6.9 75 2.2 E 20 28 11 15 1022.0 1019.1 0.0
18/09:00pm 11.9 6.7 7.2 73 2.4 E 24 37 13 20 1021.6 1018.6 0.0
18/08:30pm 12.5 7.0 7.4 71 2.6 E 26 39 14 21 1021.4 1018.5 0.0
18/08:00pm 13.9 8.7 7.4 65 3.3 E 24 35 13 19 1021.3 1018.4 0.0
18/07:30pm 15.5 10.7 7.3 58 4.3 E 22 32 12 17 1021.1 1018.2 0.0
18/07:00pm 16.4 11.2 7.3 55 4.8 E 24 33 13 18 1020.9 1018.0 0.0
18/06:30pm 17.5 12.4 7.5 52 5.3 E 24 35 13 19 1020.7 1017.7 0.0
18/06:00pm 18.5 14.0 7.0 47 6.0 E 20 30 11 16 1020.6 1017.6 0.0
18/05:30pm 19.0 14.5 6.8 45 6.4 ENE 20 28 11 15 1020.7 1017.7 0.0
18/05:00pm 18.5 13.2 7.0 47 6.0 ENE 24 33 13 18 1020.7 1017.7 0.0
18/04:30pm 18.6 13.4 7.4 48 6.0 ENE 24 32 13 17 1020.8 1017.8 0.0
18/04:00pm 18.1 13.3 7.2 49 5.7 ENE 22 32 12 17 1020.9 1018.0 0.0
18/03:30pm 17.5 13.1 7.5 52 5.3 E 20 30 11 16 1021.3 1018.4 0.0
18/03:00pm 17.8 13.4 7.2 50 5.6 E 20 28 11 15 1021.7 1018.7 0.0
18/02:30pm 18.5 15.0 7.3 48 5.9 ENE 15 20 8 11 1021.8 1018.8 0.0
18/02:00pm 18.1 13.7 7.5 50 5.6 NE 20 26 11 14 1022.0 1019.1 0.0
18/01:30pm 18.0 13.5 7.1 49 5.7 NE 20 32 11 17 1022.3 1019.4 0.0
18/01:00pm 17.8 12.9 6.7 48 5.8 NE 22 33 12 18 1022.7 1019.7 0.0
18/12:30pm 19.5 14.8 9.4 52 5.6 NE 24 37 13 20 1022.9 1020.0 0.0
18/12:00pm 18.9 14.4 8.6 51 5.6 NE 22 35 12 19 1023.0 1020.1 0.0
18/11:30am 17.7 12.2 7.4 51 5.4 NE 26 37 14 20 1023.2 1020.3 0.0
18/11:00am 17.1 12.5 8.0 55 4.8 ENE 22 32 12 17 1023.4 1020.5 0.0
18/10:30am 16.1 11.0 7.6 57 4.5 NE 24 35 13 19 1023.4 1020.5 0.0
18/10:00am 16.0 11.0 8.0 59 4.2 ENE 24 37 13 20 1023.4 1020.5 0.0
18/09:30am 14.9 10.7 8.4 65 3.4 ENE 20 30 11 16 1023.3 1020.4 0.0
18/09:00am 13.8 8.5 8.4 70 2.8 ENE 26 41 14 22 1023.3 1020.4 0.2
18/08:30am 12.0 7.3 7.9 76 2.1 ENE 22 35 12 19 1023.0 1020.1 0.2
18/08:00am 11.2 6.1 7.5 78 1.9 ENE 24 33 13 18 1022.7 1019.7 0.2
18/07:30am 11.0 6.5 6.9 76 2.1 E 20 28 11 15 1022.5 1019.6 0.2
18/07:00am 10.3 6.3 6.8 79 1.7 E 17 28 9 15 1022.2 1019.3 0.2
18/06:30am 9.0 4.9 6.4 84 1.3 ENE 17 20 9 11 1022.0 1019.1 0.2
18/06:00am 8.2 4.4 5.8 85 1.1 E 15 22 8 12 1021.8 1018.8 0.2
18/05:30am 8.4 3.9 5.9 84 1.2 E 19 26 10 14 1021.6 1018.6 0.2
18/05:00am 8.5 4.4 6.0 84 1.2 E 17 26 9 14 1021.3 1018.4 0.2
18/04:30am 8.8 4.2 6.3 84 1.2 E 20 33 11 18 1021.1 1018.2 0.2
18/04:00am 9.0 3.2 6.1 82 1.4 E 26 37 14 20 1021.2 1018.3 0.2
18/03:30am 8.8 3.0 6.1 83 1.3 E 26 35 14 19 1021.3 1018.4 0.2
18/03:00am 8.8 3.3 6.1 83 1.3 E 24 35 13 19 1021.6 1018.6 0.2
18/02:30am 9.2 3.0 6.3 82 1.4 E 28 35 15 19 1021.8 1018.8 0.2
18/02:00am 9.7 3.3 6.8 82 1.4 E 30 39 16 21 1021.9 1019.0 0.2
18/01:30am 10.0 4.6 7.8 86 1.1 E 26 37 14 20 1022.0 1019.1 0.2
18/01:00am 9.9 4.3 7.3 84 1.3 E 26 33 14 18 1022.2 1019.3 0.2
18/12:30am 10.5 4.6 7.6 82 1.5 E 28 41 15 22 1022.3 1019.4 0.2
18/12:00am 10.6 4.7 7.5 81 1.6 E 28 39 15 21 1022.5 1019.6 0.2
 
Date/Time
EDT
Temp
°C
App
Temp
°C
Dew
Point
°C
Rel
Hum
%
Delta-T
°C
Wind Press
QNH
hPa
Press
MSL
hPa
Rain since
9am
mm
Dir  Spd
km/h
Gust
km/h
Spd
kts
Gust
kts
17/11:30pm 10.7 5.3 7.8 82 1.5 E 26 43 14 23 1022.4 1019.5 0.2
17/11:00pm 10.9 5.1 8.1 83 1.4 E 28 39 15 21 1022.4 1019.5 0.2
17/10:30pm 11.2 5.6 8.6 84 1.4 E 28 41 15 22 1022.2 1019.3 0.2
17/10:00pm 11.3 5.3 8.5 83 1.4 E 30 41 16 22 1022.2 1019.3 0.2
17/09:30pm 11.6 6.0 8.6 82 1.6 E 28 35 15 19 1021.9 1019.0 0.2
17/09:00pm 12.1 5.8 8.8 80 1.7 E 32 44 17 24 1021.4 1018.5 0.2
17/08:30pm 12.7 6.4 9.0 78 2.0 E 32 43 17 23 1021.1 1018.2 0.2
17/08:00pm 13.4 7.5 9.1 75 2.3 ESE 30 43 16 23 1020.8 1017.8 0.2
17/07:30pm 14.7 8.2 9.1 69 3.0 E 33 44 18 24 1020.1 1017.2 0.2
17/07:00pm 16.3 10.3 8.8 61 4.0 E 30 39 16 21 1019.7 1016.7 0.2
17/06:30pm 17.5 11.7 7.8 53 5.2 ESE 28 35 15 19 1019.4 1016.4 0.2
17/06:00pm 18.3 13.0 8.6 53 5.3 ESE 26 35 14 19 1019.1 1016.2 0.2
17/05:30pm 18.4 13.2 8.9 54 5.2 ESE 26 33 14 18 1019.0 1016.1 0.2
17/05:00pm 18.4 13.5 10.0 58 4.7 ESE 26 33 14 18 1018.9 1015.9 0.2
17/04:30pm 17.0 12.5 9.9 63 3.9 E 24 33 13 18 1018.7 1015.7 0.2
17/04:00pm 17.1 11.8 10.0 63 3.9 ESE 28 39 15 21 1018.4 1015.4 0.2
17/03:30pm 20.0 15.5 7.1 43 6.9 ENE 20 30 11 16 1018.2 1015.2 0.0
17/03:00pm 21.8 18.9 6.5 37 8.1 ESE 11 15 6 8 1018.4 1015.4 0.0
17/02:30pm 21.1 18.1 5.9 37 8.0 E 11 19 6 10 1018.7 1015.7 0.0
17/02:00pm 21.9 19.5 7.0 38 8.0 ENE 9 15 5 8 1018.8 1015.8 0.0
17/01:30pm 20.4 18.2 6.4 40 7.4 SE 7 17 4 9 1019.0 1016.1 0.0
17/01:00pm 20.6 19.3 6.2 39 7.6 SSW 2 9 1 5 1019.3 1016.3 0.0
17/12:30pm 22.2 20.6 8.7 42 7.5 SE 7 13 4 7 1019.5 1016.5 0.0
17/12:00pm 20.5 17.7 8.5 46 6.6 ENE 13 20 7 11 1019.8 1016.8 0.0
17/11:30am 18.3 16.1 8.0 51 5.5 SE 9 15 5 8 1020.0 1017.1 0.0
17/11:00am 20.4 19.0 10.8 54 5.5 ESE 9 15 5 8 1019.9 1017.0 0.0
17/10:30am 18.8 17.2 10.1 57 4.9 SSE 9 13 5 7 1020.0 1017.1 0.0
17/10:00am 16.9 15.3 10.1 64 3.8 SSE 9 13 5 7 1020.0 1017.1 0.0
17/09:30am 15.9 14.6 11.3 74 2.6 ESE 9 15 5 8 1020.0 1017.1 0.0
17/09:26am 16.0 14.9 12.0 77 2.3 ESE 9 15 5 8 1020.0 1017.1 0.0
17/09:00am 13.0 12.5 12.8 99 0.1 ENE 7 13 4 7 1019.9 1017.0 0.0
17/08:52am 12.4 11.4 12.2 99 0.1 NE 9 11 5 6 1019.8 1016.8 0.0
17/08:30am 11.3 10.0 11.1 99 0.1 E 9 13 5 7 1019.8 1016.8 0.0
17/08:00am 10.9 9.4 10.7 99 0.1 E 9 11 5 6 1019.7 1016.7 0.0
17/07:30am 10.4 10.5 10.2 99 0.1 CALM 0 6 0 3 1019.3 1016.3 0.0
17/07:00am 8.4 7.3 8.3 99 0.1 SSE 4 6 2 3 1018.9 1015.9 0.0
17/06:30am 7.3 5.3 7.2 99 0.0 SSE 7 9 4 5 1018.6 1015.6 0.0
17/06:00am 6.6 5.8 6.5 99 0.0 CALM 0 0 0 0 1018.4 1015.4 0.0
17/05:30am 5.2 4.1 5.1 99 0.0 CALM 0 0 0 0 1018.1 1015.1 0.0
17/05:00am 6.7 5.9 6.6 99 0.0 CALM 0 0 0 0 1017.9 1014.9 0.0
17/04:30am 6.7 5.9 6.6 99 0.0 CALM 0 0 0 0 1017.9 1014.9 0.0
17/04:09am 6.6 5.8 6.3 98 0.1 CALM 0 0 0 0 1017.9 1014.9 0.0
17/04:00am 7.1 6.4 6.8 98 0.1 CALM 0 0 0 0 1017.9 1014.9 0.0
17/03:52am 6.7 5.9 6.3 97 0.2 CALM 0 0 0 0 1017.9 1014.9 0.0
17/03:30am 6.5 4.4 5.9 96 0.3 NW 6 6 3 3 1017.9 1014.9 0.0
17/03:20am 6.6 4.4 6.2 97 0.2 NW 7 7 4 4 1017.8 1014.8 0.0
17/03:00am 7.4 5.4 7.1 98 0.1 NW 7 7 4 4 1018.1 1015.1 0.0
17/02:44am 7.9 6.2 7.6 98 0.1 NW 6 6 3 3 1018.3 1015.3 0.0
17/02:43am 7.9 6.2 7.6 98 0.1 NW 6 6 3 3 1018.3 1015.3 0.0
17/02:30am 7.9 6.2 7.6 98 0.1 NW 6 7 3 4 1018.4 1015.4 0.0
17/02:00am 9.1 8.8 8.8 98 0.2 CALM 0 0 0 0 1018.7 1015.7 0.0
17/01:40am 7.7 6.2 6.8 94 0.4 N 4 7 2 4 1019.0 1016.1 0.0
17/01:30am 8.3 7.6 7.1 92 0.6 CALM 0 0 0 0 1019.3 1016.3 0.0
17/01:00am 9.3 8.9 8.2 93 0.6 CALM 0 6 0 3 1019.4 1016.4 0.0
17/12:30am 9.7 7.6 8.3 91 0.7 NNE 9 11 5 6 1019.7 1016.7 0.0
17/12:00am 10.4 8.9 9.2 92 0.6 NE 7 9 4 5 1019.9 1017.0 0.0
 
Date/Time
EDT
Temp
°C
App
Temp
°C
Dew
Point
°C
Rel
Hum
%
Delta-T
°C
Wind Press
QNH
hPa
Press
MSL
hPa
Rain since
9am
mm
Dir  Spd
km/h
Gust
km/h
Spd
kts
Gust
kts
16/11:30pm 10.5 8.9 8.6 88 1.0 NE 7 9 4 5 1019.9 1017.0 0.0
16/11:00pm 11.4 9.6 9.5 88 1.0 ENE 9 13 5 7 1020.1 1017.2 0.0
16/10:30pm 11.7 10.3 9.4 86 1.2 ESE 7 13 4 7 1020.0 1017.1 0.0
16/10:00pm 11.9 9.0 9.5 85 1.3 ESE 15 17 8 9 1019.8 1016.8 0.0
16/09:30pm 12.5 9.8 5.4 62 3.5 SE 9 15 5 8 1019.1 1016.2 0.0
16/09:00pm 14.6 10.9 2.2 43 5.8 WSW 11 11 6 6 1018.7 1015.7 0.0
16/08:30pm 15.2 11.1 2.1 41 6.1 WSW 13 13 7 7 1018.6 1015.6 0.0
16/08:00pm 15.9 12.1 2.0 39 6.5 WSW 11 13 6 7 1018.5 1015.5 0.0
16/07:30pm 18.3 14.6 2.2 34 7.7 SW 11 13 6 7 1018.2 1015.2 0.0
16/07:00pm 20.5 16.0 1.9 29 9.0 SW 15 20 8 11 1017.9 1014.9 0.0
16/06:30pm 21.6 16.9 3.3 30 9.2 SW 17 22 9 12 1017.7 1014.7 0.0
16/06:00pm 21.8 16.7 3.9 31 9.1 SW 20 28 11 15 1017.6 1014.6 0.0
16/05:30pm 22.3 17.8 6.1 35 8.6 SW 19 26 10 14 1017.6 1014.6 0.0
16/05:00pm 21.3 17.4 5.2 35 8.3 SW 15 20 8 11 1017.8 1014.8 0.0
16/04:30pm 23.3 19.5 5.7 32 9.3 NW 15 24 8 13 1017.8 1014.8 0.0
16/04:00pm 21.4 18.5 4.5 33 8.6 W 9 13 5 7 1018.1 1015.1 0.0

Other Formats:

Comma delimited format used in spreadsheet applications
http://www.bom.gov.au/fwo/IDN60801/IDN60801.95726.axf

JavaScript Object Notation format (JSON) in row-major order
http://www.bom.gov.au/fwo/IDN60801/IDN60801.95726.json